NZQN METAR and TAF | Updated Today

NZQN METAR

Queenstown International Airport

Queenstown International Airport (NZQN) hasn't published a METAR.
We found the following current weather conditions for Lower Shotover from other sources.

Queenstown International Airport (NZQN) METAR

  • Weather conditions right now at NZQN:
  • Present conditions: Clouds
  • Clouds: Broken clouds
  • Cloud cover: 54%
  • Wind: 109 at 4kts
  • Temperature: 4.3 celsius
  • Feels like: 2.6 celsius
  • Pressure: 1026mb
  • Humidity: 80%


Useful to know...

NZQN TAF

Queenstown International Airport

TAF NZQN 291701Z 2918/3012 16010KT 9999 BKN040 BECMG 3006/3008 03005KT
Observation time: 3:04 hr. ago
Need help? Read our tutorial on how to read TAFs or read the parsed version below.

Parsed version of TAF for Queenstown International Airport (NZQN)

  • From 29 September at 18:00 UTC, to day 30 of the month at 12:00 UTC
  • Clouds: Broken sky at 1219 meters
  • Visibility: Greater than 10 km
  • Wind: 160 degrees at 10
  • Expected to arise soon, from 30 September at 06:00 UTC, to day 30 of the month at 08:00 UTC
  • Wind: 30 degrees at 5

Airports near NZQN

NZMF Weather
Region:

Milford Sound Airport

Not found in our database